createdAt,value
2019-02-25T00:01:38.736Z,38.35
2019-02-25T00:04:10.875Z,41.15
2019-02-25T00:06:43.300Z,40.47
2019-02-25T00:09:15.954Z,39.47
2019-02-25T00:11:48.001Z,38.53
2019-02-25T00:14:19.788Z,36.23
2019-02-25T00:16:51.668Z,39.57
2019-02-25T00:19:23.117Z,42.45
2019-02-25T00:21:54.790Z,40.70
2019-02-25T00:24:27.775Z,40.35
2019-02-25T00:26:59.036Z,36.88
2019-02-25T00:29:30.961Z,38.55
2019-02-25T00:32:02.834Z,37.67
2019-02-25T00:34:34.463Z,38.38
2019-02-25T00:37:05.599Z,40.88
2019-02-25T00:39:36.775Z,36.97
2019-02-25T00:42:08.041Z,44.05
2019-02-25T00:44:39.573Z,41.00
2019-02-25T00:47:11.346Z,42.73
2019-02-25T00:49:43.302Z,38.93
2019-02-25T00:52:15.400Z,42.00
2019-02-25T00:54:46.647Z,42.55
2019-02-25T00:57:19.119Z,45.90
2019-02-25T00:59:50.578Z,42.95
2019-02-25T01:02:22.053Z,43.25
2019-02-25T01:04:53.865Z,45.40
2019-02-25T01:07:25.950Z,46.35
2019-02-25T01:09:58.388Z,45.55
2019-02-25T01:12:30.810Z,42.30
2019-02-25T01:15:06.170Z,43.87
2019-02-25T01:17:38.701Z,43.00
2019-02-25T01:20:12.374Z,42.80
2019-02-25T01:22:44.872Z,49.70
2019-02-25T01:25:18.836Z,45.60
2019-02-25T01:27:53.062Z,45.58
2019-02-25T01:30:24.934Z,44.58
2019-02-25T01:32:56.187Z,44.85
2019-02-25T01:35:28.490Z,45.75
2019-02-25T01:38:02.720Z,41.02
2019-02-25T01:40:34.153Z,40.08
2019-02-25T01:43:07.281Z,43.30
2019-02-25T01:45:39.476Z,42.83
2019-02-25T01:48:11.074Z,46.63
2019-02-25T01:50:42.344Z,47.70
2019-02-25T01:53:14.517Z,41.98
2019-02-25T01:55:46.414Z,48.40
2019-02-25T01:58:20.414Z,49.53
2019-02-25T02:00:52.194Z,47.70
2019-02-25T02:03:23.082Z,49.33
2019-02-25T02:05:57.499Z,53.13
2019-02-25T02:08:31.933Z,50.38
2019-02-25T02:11:04.503Z,48.33
2019-02-25T02:13:36.875Z,45.33
2019-02-25T02:16:07.926Z,48.42
2019-02-25T02:18:41.978Z,50.03
2019-02-25T02:21:14.119Z,49.25
2019-02-25T02:23:45.470Z,43.33
2019-02-25T02:26:21.243Z,49.98
2019-02-25T02:28:53.213Z,51.13
2019-02-25T02:31:24.440Z,62.05
2019-02-25T02:33:56.218Z,57.23
2019-02-25T02:36:28.704Z,51.85
2019-02-25T02:39:01.373Z,54.18
2019-02-25T02:41:35.174Z,53.20
2019-02-25T02:44:22.802Z,54.55
2019-02-25T02:47:13.304Z,56.98
2019-02-25T02:49:45.823Z,62.25
2019-02-25T02:52:16.678Z,58.85
2019-02-25T02:54:48.251Z,65.17
2019-02-25T02:57:21.557Z,64.80
2019-02-25T02:59:59.535Z,64.65
2019-02-25T03:02:42.590Z,65.50
2019-02-25T03:05:17.763Z,65.00
2019-02-25T03:07:54.182Z,65.47
2019-02-25T03:10:29.320Z,64.17
2019-02-25T03:13:02.813Z,62.95
2019-02-25T03:16:32.785Z,66.28
2019-02-25T03:19:07.755Z,63.38
2019-02-25T03:21:46.910Z,62.38
2019-02-25T03:24:21.783Z,68.47
2019-02-25T03:26:54.207Z,64.17
2019-02-25T03:29:29.234Z,63.00
2019-02-25T03:38:39.830Z,58.80
2019-02-25T03:41:14.456Z,61.98
2019-02-25T03:43:47.704Z,60.73
2019-02-25T03:46:20.272Z,63.92
2019-02-25T03:48:52.135Z,60.43
2019-02-25T03:51:25.439Z,63.52
2019-02-25T03:53:57.152Z,66.75
2019-02-25T03:56:28.811Z,61.37
2019-02-25T03:59:00.595Z,66.33
2019-02-25T04:01:34.021Z,67.65
2019-02-25T04:04:05.809Z,64.58
2019-02-25T04:06:37.657Z,66.28
2019-02-25T04:09:10.983Z,62.83
2019-02-25T04:11:43.022Z,60.30
2019-02-25T04:14:17.282Z,63.02
2019-02-25T04:17:07.384Z,59.45
2019-02-25T04:20:00.989Z,63.68
2019-02-25T04:22:39.955Z,64.15
2019-02-25T04:25:13.461Z,62.75
2019-02-25T04:27:45.980Z,61.83
2019-02-25T04:30:17.673Z,60.60
2019-02-25T04:33:14.038Z,62.70
2019-02-25T04:35:44.371Z,64.87
2019-02-25T04:38:17.450Z,63.13
2019-02-25T04:40:52.598Z,60.33
2019-02-25T04:43:25.134Z,64.10
2019-02-25T04:45:57.529Z,60.80
2019-02-25T04:48:29.936Z,58.90
2019-02-25T04:51:23.307Z,65.90
2019-02-25T04:54:01.661Z,62.05
2019-02-25T04:56:33.080Z,61.50
2019-02-25T04:59:12.713Z,67.65
2019-02-25T05:01:45.959Z,65.03
2019-02-25T05:04:17.553Z,67.30
2019-02-25T05:06:49.438Z,59.40
2019-02-25T05:09:21.068Z,69.70
2019-02-25T05:11:52.250Z,71.75
2019-02-25T05:14:36.817Z,70.37
2019-02-25T05:17:08.227Z,67.42
2019-02-25T05:19:41.197Z,70.42
2019-02-25T05:22:42.210Z,78.55
2019-02-25T05:25:14.980Z,64.20
2019-02-25T05:27:46.683Z,71.87
2019-02-25T05:30:18.402Z,68.72
2019-02-25T05:32:50.098Z,67.15
2019-02-25T05:35:21.233Z,68.85
2019-02-25T05:37:56.226Z,71.87
2019-02-25T05:40:26.898Z,73.65
2019-02-25T05:42:57.393Z,84.35
2019-02-25T05:45:28.886Z,77.00
2019-02-25T05:47:59.726Z,79.67
2019-02-25T05:50:30.822Z,83.00
2019-02-25T05:53:01.183Z,88.90
2019-02-25T05:55:31.746Z,81.42
2019-02-25T05:58:02.489Z,86.10
2019-02-25T06:00:33.993Z,82.70
2019-02-25T06:03:04.635Z,83.92
2019-02-25T06:05:34.953Z,82.30
2019-02-25T06:08:05.360Z,86.25
2019-02-25T06:10:35.882Z,78.65
2019-02-25T06:13:08.251Z,82.57
2019-02-25T06:15:38.712Z,86.02
2019-02-25T06:18:10.372Z,78.07
2019-02-25T06:20:41.630Z,90.50
2019-02-25T06:23:12.441Z,80.38
2019-02-25T06:25:43.075Z,82.12
2019-02-25T06:28:14.713Z,85.28
2019-02-25T06:30:46.608Z,84.47
2019-02-25T06:33:19.020Z,81.92
2019-02-25T06:35:50.969Z,77.85
2019-02-25T06:38:22.538Z,76.07
2019-02-25T06:40:54.032Z,79.05
2019-02-25T06:43:29.869Z,80.92
2019-02-25T06:46:00.944Z,81.87
2019-02-25T06:48:33.313Z,81.15
2019-02-25T06:51:06.386Z,90.55
2019-02-25T06:53:37.311Z,90.92
2019-02-25T06:56:08.554Z,86.67
2019-02-25T06:58:40.639Z,98.03
2019-02-25T07:01:12.345Z,94.97
2019-02-25T07:03:44.840Z,103.97
2019-02-25T07:06:27.390Z,109.22
2019-02-25T07:09:18.261Z,90.07
2019-02-25T07:12:02.206Z,105.30
2019-02-25T07:14:47.370Z,98.70
2019-02-25T07:17:36.541Z,86.97
2019-02-25T07:50:21.824Z,113.60
2019-02-25T07:53:00.338Z,104.03
2019-02-25T07:55:42.459Z,103.58
2019-02-25T07:58:18.741Z,109.52
2019-02-25T08:00:54.622Z,110.48
2019-02-25T08:07:05.952Z,112.63
2019-02-25T08:16:16.607Z,109.37
2019-02-25T08:18:49.439Z,103.00
2019-02-25T08:21:27.547Z,107.17
2019-02-25T08:24:16.918Z,107.67
2019-02-25T08:27:06.596Z,107.97
2019-02-25T08:30:04.162Z,108.93
2019-02-25T08:32:43.701Z,104.50
2019-02-25T08:36:10.554Z,98.10
2019-02-25T08:45:13.336Z,103.13
2019-02-25T08:47:49.708Z,95.20
2019-02-25T08:50:24.238Z,88.40
2019-02-25T08:52:55.714Z,87.57
2019-02-25T08:55:58.299Z,79.40
2019-02-25T09:01:51.752Z,87.70
2019-02-25T09:04:22.609Z,86.63
2019-02-25T09:08:19.564Z,87.03
2019-02-25T09:09:39.426Z,84.07
2019-02-25T09:12:11.836Z,82.43
2019-02-25T09:14:43.015Z,80.93
2019-02-25T09:17:16.242Z,74.60
2019-02-25T09:19:47.115Z,77.40
2019-02-25T09:22:18.152Z,82.73
2019-02-25T09:24:50.711Z,77.03
2019-02-25T09:27:23.909Z,78.10
2019-02-25T09:29:54.936Z,85.23
2019-02-25T09:32:55.269Z,74.10
2019-02-25T09:38:56.912Z,82.63
2019-02-25T09:41:30.264Z,78.10
2019-02-25T09:44:01.564Z,75.23
2019-02-25T09:46:32.903Z,81.40
2019-02-25T09:49:03.607Z,76.63
2019-02-25T09:51:34.590Z,73.67
2019-02-25T09:54:05.907Z,76.80
2019-02-25T09:56:38.180Z,71.77
2019-02-25T09:59:10.385Z,74.50
2019-02-25T10:01:42.507Z,75.50
2019-02-25T10:04:16.031Z,71.10
2019-02-25T10:06:47.408Z,68.53
2019-02-25T10:09:19.109Z,67.57
2019-02-25T10:11:51.572Z,71.37
2019-02-25T10:14:25.187Z,65.33
2019-02-25T10:16:56.115Z,64.63
2019-02-25T10:19:27.412Z,63.63
2019-02-25T10:21:58.889Z,61.10
2019-02-25T10:24:31.692Z,64.60
2019-02-25T10:27:02.100Z,59.20
2019-02-25T10:29:32.561Z,56.23
2019-02-25T10:32:04.853Z,56.10
2019-02-25T10:34:35.511Z,53.67
2019-02-25T10:37:10.889Z,60.47
2019-02-25T10:39:41.213Z,55.60
2019-02-25T10:42:13.079Z,52.97
2019-02-25T10:44:44.980Z,53.20
2019-02-25T10:47:18.988Z,49.30
2019-02-25T10:49:49.792Z,46.17
2019-02-25T10:52:20.946Z,46.20
2019-02-25T10:54:52.456Z,43.93
2019-02-25T10:57:27.203Z,43.17
2019-02-25T10:59:56.980Z,39.77
2019-02-25T11:02:29.860Z,46.40
2019-02-25T11:05:03.396Z,46.27
2019-02-25T11:07:39.365Z,44.40
2019-02-25T11:10:13.971Z,45.73
2019-02-25T11:12:53.845Z,46.23
2019-02-25T11:15:33.761Z,41.20
2019-02-25T11:18:09.336Z,41.23
2019-02-25T11:20:41.256Z,45.53
2019-02-25T11:23:28.658Z,38.13
2019-02-25T11:29:35.551Z,41.67
2019-02-25T11:32:07.936Z,43.27
2019-02-25T11:34:39.979Z,39.07
2019-02-25T11:37:11.600Z,38.03
2019-02-25T11:39:45.198Z,37.03
2019-02-25T11:42:20.344Z,37.30
2019-02-25T11:44:51.795Z,38.27
2019-02-25T11:47:25.043Z,37.67
2019-02-25T11:50:39.075Z,42.07
2019-02-25T11:53:12.526Z,40.57
2019-02-25T11:55:55.908Z,41.43
2019-02-25T11:58:34.249Z,40.93
2019-02-25T12:01:09.111Z,43.17
2019-02-25T12:03:41.661Z,43.53
2019-02-25T12:06:12.574Z,39.90
2019-02-25T12:08:44.709Z,40.77
2019-02-25T12:11:18.170Z,40.00
2019-02-25T12:13:49.355Z,41.10
2019-02-25T12:16:21.781Z,45.73
2019-02-25T12:18:53.767Z,45.10
2019-02-25T12:21:25.983Z,42.50
2019-02-25T12:23:57.962Z,44.37
2019-02-25T12:26:29.109Z,42.50
2019-02-25T12:29:08.491Z,46.37
2019-02-25T12:31:35.900Z,47.60
2019-02-25T12:34:07.815Z,50.93
2019-02-25T12:36:39.051Z,49.23
2019-02-25T12:39:10.022Z,47.50
2019-02-25T12:41:43.137Z,44.10
2019-02-25T12:44:14.419Z,44.77
2019-02-25T12:46:46.312Z,48.27
2019-02-25T12:49:18.058Z,50.20
2019-02-25T12:51:49.928Z,51.60
2019-02-25T12:54:23.653Z,43.70
2019-02-25T12:56:54.784Z,43.60
2019-02-25T13:00:15.771Z,48.93
2019-02-25T13:02:49.074Z,46.90
2019-02-25T13:05:24.863Z,47.83
2019-02-25T13:11:47.677Z,46.60
2019-02-25T13:14:22.834Z,49.93
2019-02-25T13:16:56.773Z,51.60
2019-02-25T13:19:35.342Z,49.67
2019-02-25T13:22:10.276Z,49.60
2019-02-25T13:24:48.574Z,48.00
2019-02-25T13:27:20.593Z,56.63
2019-02-25T13:29:52.693Z,50.80
2019-02-25T13:32:27.793Z,48.47
2019-02-25T13:35:00.448Z,47.30
2019-02-25T13:37:32.679Z,53.80
2019-02-25T13:40:08.925Z,55.37
2019-02-25T13:42:44.897Z,51.33
2019-02-25T13:45:23.786Z,59.40
2019-02-25T13:47:59.522Z,61.40
2019-02-25T13:50:32.875Z,61.67
2019-02-25T13:53:08.297Z,57.30
2019-02-25T13:55:41.057Z,63.10
2019-02-25T13:58:17.495Z,65.13
2019-02-25T14:00:50.617Z,63.07
2019-02-25T14:03:27.248Z,64.80
2019-02-25T14:06:04.878Z,65.03
2019-02-25T14:08:38.705Z,61.07
2019-02-25T14:11:13.168Z,130.00
2019-02-25T14:13:45.257Z,56.47
2019-02-25T14:16:19.688Z,57.47
2019-02-25T14:18:53.071Z,56.73
2019-02-25T14:21:26.696Z,60.43
2019-02-25T14:24:00.624Z,57.37
2019-02-25T14:26:35.227Z,56.10
2019-02-25T14:29:08.700Z,57.00
2019-02-25T14:31:40.906Z,59.60
2019-02-25T14:34:17.778Z,57.20
2019-02-25T14:36:52.473Z,59.20
2019-02-25T14:39:28.443Z,60.83
2019-02-25T14:41:59.269Z,58.80
2019-02-25T14:44:35.215Z,56.90
2019-02-25T14:47:19.325Z,57.90
2019-02-25T14:49:41.081Z,58.20
2019-02-25T14:52:13.591Z,59.80
2019-02-25T14:54:46.247Z,63.80
2019-02-25T14:57:20.389Z,60.30
2019-02-25T14:59:57.073Z,55.30
2019-02-25T15:02:30.438Z,56.17
2019-02-25T15:05:08.645Z,79.93
2019-02-25T15:07:40.636Z,60.00
2019-02-25T15:10:14.070Z,55.53
2019-02-25T15:16:22.744Z,55.30
2019-02-25T15:18:58.591Z,58.70
2019-02-25T15:21:35.492Z,57.50
2019-02-25T15:24:12.202Z,60.00
2019-02-25T15:26:44.385Z,54.27
2019-02-25T15:29:48.951Z,61.27
2019-02-25T15:32:25.888Z,56.23
2019-02-25T15:35:05.259Z,51.97
2019-02-25T15:37:57.339Z,54.93
2019-02-25T15:40:28.365Z,56.87
2019-02-25T15:43:13.194Z,56.83
2019-02-25T15:45:48.475Z,51.80
2019-02-25T15:48:23.590Z,54.37
2019-02-25T15:50:58.582Z,57.80
2019-02-25T15:53:32.615Z,53.87
2019-02-25T15:56:05.985Z,55.87
2019-02-25T15:58:47.045Z,51.33
2019-02-25T16:01:20.246Z,53.73
2019-02-25T16:03:51.988Z,53.83
2019-02-25T16:06:26.988Z,50.07
2019-02-25T16:08:58.785Z,55.10
2019-02-25T16:11:34.308Z,53.37
2019-02-25T16:14:07.183Z,55.23
2019-02-25T16:16:38.727Z,51.53
2019-02-25T16:19:13.545Z,51.47
2019-02-25T16:21:45.372Z,51.40
2019-02-25T16:24:18.594Z,52.23
2019-02-25T16:26:49.857Z,47.87
2019-02-25T16:29:22.406Z,49.20
2019-02-25T16:31:55.199Z,49.67
2019-02-25T16:34:27.213Z,52.47
2019-02-25T16:37:00.219Z,54.03
2019-02-25T16:39:31.396Z,51.53
2019-02-25T16:42:02.950Z,50.30
2019-02-25T16:44:35.064Z,47.17
2019-02-25T16:47:07.896Z,51.73
2019-02-25T16:49:42.219Z,51.00
2019-02-25T16:52:15.815Z,48.77
2019-02-25T16:54:46.839Z,55.63
2019-02-25T16:57:18.582Z,53.53
2019-02-25T16:59:53.327Z,53.47
2019-02-25T17:02:23.988Z,50.27
2019-02-25T17:04:55.624Z,50.63
2019-02-25T17:07:32.687Z,49.40
2019-02-25T17:10:08.086Z,52.47
2019-02-25T17:12:41.350Z,50.97
2019-02-25T17:15:20.847Z,58.43
2019-02-25T17:18:00.341Z,49.60
2019-02-25T17:20:33.772Z,50.03
2019-02-25T17:23:10.266Z,52.23
2019-02-25T17:25:46.592Z,48.93
2019-02-25T17:28:20.327Z,53.07
2019-02-25T17:30:57.940Z,52.50
2019-02-25T17:33:32.604Z,51.07
2019-02-25T17:36:09.769Z,54.20
2019-02-25T17:38:42.789Z,53.73
2019-02-25T17:41:15.689Z,51.37
2019-02-25T17:43:49.741Z,54.70
2019-02-25T17:46:28.731Z,55.17
2019-02-25T17:49:01.260Z,53.03
2019-02-25T17:51:35.796Z,52.10
2019-02-25T17:54:10.127Z,56.27
2019-02-25T17:56:43.131Z,53.97
2019-02-25T17:59:20.679Z,52.80
2019-02-25T18:01:56.326Z,49.90
2019-02-25T18:04:30.474Z,52.77
2019-02-25T18:07:05.363Z,57.23
2019-02-25T18:09:39.998Z,59.07
2019-02-25T18:12:14.779Z,54.07
2019-02-25T18:14:50.772Z,57.30
2019-02-25T18:17:24.640Z,55.07
2019-02-25T18:19:59.113Z,55.23
2019-02-25T18:22:33.212Z,54.27
2019-02-25T18:25:10.243Z,52.23
2019-02-25T18:27:43.939Z,59.70
2019-02-25T18:30:24.504Z,59.23
2019-02-25T18:33:00.971Z,54.30
2019-02-25T18:35:36.846Z,53.30
2019-02-25T18:38:13.450Z,51.23
2019-02-25T18:40:51.330Z,55.20
2019-02-25T18:43:28.254Z,58.20
2019-02-25T18:46:05.025Z,56.73
2019-02-25T18:48:56.391Z,57.37
2019-02-25T18:51:45.696Z,50.57
2019-02-25T18:54:36.948Z,52.47
2019-02-25T18:57:18.850Z,55.87
2019-02-25T18:59:51.644Z,55.03
2019-02-25T19:02:23.411Z,54.00
2019-02-25T19:04:54.375Z,55.13
2019-02-25T19:07:27.312Z,53.87
2019-02-25T19:09:58.431Z,55.73
2019-02-25T19:12:31.629Z,58.23
2019-02-25T19:15:04.743Z,59.43
2019-02-25T19:17:37.344Z,58.50
2019-02-25T19:20:11.701Z,54.73
2019-02-25T19:22:44.617Z,61.40
2019-02-25T19:25:25.300Z,56.17
2019-02-25T19:27:58.932Z,55.30
2019-02-25T19:30:32.113Z,55.87
2019-02-25T19:33:11.016Z,59.20
2019-02-25T19:35:40.858Z,53.90
2019-02-25T19:38:14.634Z,61.00
2019-02-25T19:40:51.293Z,70.10
2019-02-25T19:43:21.091Z,70.73
2019-02-25T19:45:53.027Z,63.40
2019-02-25T19:48:28.684Z,69.53
2019-02-25T19:51:00.914Z,66.97
2019-02-25T19:53:35.830Z,65.00
2019-02-25T19:56:05.462Z,60.83
2019-02-25T19:58:39.247Z,60.67
2019-02-25T20:01:11.069Z,62.27
2019-02-25T20:03:45.177Z,62.77
2019-02-25T20:06:18.602Z,61.40
2019-02-25T20:08:51.581Z,61.17
2019-02-25T20:11:25.829Z,56.03
2019-02-25T20:14:00.956Z,61.23
2019-02-25T20:16:32.954Z,60.27
2019-02-25T20:19:06.360Z,61.83
2019-02-25T20:21:38.728Z,65.07
2019-02-25T20:24:14.448Z,61.50
2019-02-25T20:26:48.605Z,62.93
2019-02-25T20:29:19.554Z,63.37
2019-02-25T20:31:51.779Z,56.70
2019-02-25T20:34:32.097Z,62.77
2019-02-25T20:37:06.903Z,66.23
2019-02-25T20:39:40.473Z,68.83
2019-02-25T20:42:17.299Z,60.77
2019-02-25T20:44:52.716Z,65.47
2019-02-25T20:47:22.747Z,71.13
2019-02-25T20:49:56.092Z,63.37
2019-02-25T20:52:28.150Z,63.50
2019-02-25T20:55:01.073Z,63.93
2019-02-25T20:57:33.768Z,66.70
2019-02-25T21:00:05.793Z,62.20
2019-02-25T21:02:37.563Z,61.47
2019-02-25T21:05:14.075Z,61.07
2019-02-25T21:07:45.515Z,66.83
2019-02-25T21:10:20.479Z,64.00
2019-02-25T21:12:53.040Z,64.83
2019-02-25T21:15:26.377Z,64.23
2019-02-25T21:17:59.930Z,65.33
2019-02-25T21:20:31.434Z,62.93
2019-02-25T21:23:05.548Z,65.97
2019-02-25T21:29:02.524Z,64.27
2019-02-25T21:31:35.534Z,64.50
2019-02-25T21:34:07.461Z,68.47
2019-02-25T21:36:40.382Z,68.33
2019-02-25T21:39:14.533Z,66.40
2019-02-25T21:41:45.965Z,68.67
2019-02-25T21:44:19.113Z,74.70
2019-02-25T21:46:52.239Z,72.43
2019-02-25T21:49:24.970Z,68.20
2019-02-25T21:52:00.251Z,64.40
2019-02-25T21:54:33.934Z,76.57
2019-02-25T21:57:07.483Z,72.33
2019-02-25T21:59:44.768Z,64.70
2019-02-25T22:02:24.203Z,61.33
2019-02-25T22:04:56.620Z,62.97
2019-02-25T22:07:29.465Z,66.40
2019-02-25T22:10:00.925Z,61.40
2019-02-25T22:12:35.226Z,67.73
2019-02-25T22:15:08.555Z,68.67
2019-02-25T22:17:44.025Z,67.53
2019-02-25T22:20:16.667Z,68.43
2019-02-25T22:22:52.357Z,65.37
2019-02-25T22:25:24.411Z,76.87
2019-02-25T22:27:56.807Z,71.93
2019-02-25T22:30:28.381Z,75.40
2019-02-25T22:33:02.993Z,69.70
2019-02-25T22:35:37.363Z,66.33
2019-02-25T22:38:08.999Z,78.60
2019-02-25T22:40:41.984Z,80.30
2019-02-25T22:43:14.204Z,76.17
2019-02-25T22:45:49.179Z,75.20
2019-02-25T22:48:23.195Z,71.57
2019-02-25T22:51:00.021Z,74.43
2019-02-25T22:53:36.634Z,82.60
2019-02-25T22:59:44.607Z,73.50
2019-02-25T23:02:16.797Z,72.22
2019-02-25T23:04:51.822Z,72.67
2019-02-25T23:10:51.514Z,76.00
2019-02-25T23:13:27.357Z,76.20
2019-02-25T23:15:59.650Z,79.40
2019-02-25T23:18:32.601Z,81.83
2019-02-25T23:21:04.438Z,78.97
2019-02-25T23:23:37.482Z,77.40
2019-02-25T23:26:10.434Z,77.65
2019-02-25T23:28:43.980Z,85.17
2019-02-25T23:31:16.074Z,77.27
2019-02-25T23:33:48.965Z,81.73
2019-02-25T23:36:26.437Z,82.73
2019-02-25T23:38:57.155Z,82.47
2019-02-25T23:41:32.139Z,94.43
2019-02-25T23:44:07.131Z,92.13
2019-02-25T23:46:40.741Z,88.40
2019-02-25T23:49:13.318Z,96.37
2019-02-25T23:51:50.678Z,85.50
2019-02-25T23:54:23.257Z,90.43
2019-02-25T23:57:23.778Z,93.27
